createdAt,value
2018-07-20T00:02:24.711Z,64.22
2018-07-20T00:04:52.960Z,64.51
2018-07-20T00:07:21.197Z,65.35
2018-07-20T00:09:49.522Z,64.68
2018-07-20T00:12:17.882Z,64.91
2018-07-20T00:14:46.202Z,63.87
2018-07-20T00:17:14.461Z,64.43
2018-07-20T00:19:42.743Z,64.65
2018-07-20T00:22:11.062Z,65.00
2018-07-20T00:24:39.592Z,65.24
2018-07-20T00:27:07.847Z,64.81
2018-07-20T00:29:36.092Z,65.21
2018-07-20T00:32:04.379Z,64.29
2018-07-20T00:34:32.621Z,64.87
2018-07-20T00:37:00.967Z,64.59
2018-07-20T00:39:29.341Z,65.16
2018-07-20T00:41:57.590Z,64.84
2018-07-20T00:44:25.835Z,65.27
2018-07-20T00:46:54.466Z,65.86
2018-07-20T00:49:22.742Z,65.65
2018-07-20T00:51:51.019Z,65.46
2018-07-20T00:54:19.276Z,65.33
2018-07-20T00:56:47.533Z,65.16
2018-07-20T00:59:15.787Z,65.89
2018-07-20T01:01:44.047Z,66.14
2018-07-20T01:04:12.347Z,65.58
2018-07-20T01:06:40.588Z,66.33
2018-07-20T01:09:10.047Z,67.26
2018-07-20T01:11:38.381Z,67.16
2018-07-20T01:14:06.622Z,66.87
2018-07-20T01:16:34.920Z,67.04
2018-07-20T01:19:03.246Z,66.58
2018-07-20T01:21:31.564Z,66.86
2018-07-20T01:23:59.815Z,67.37
2018-07-20T01:26:28.162Z,67.96
2018-07-20T01:28:56.641Z,68.27
2018-07-20T01:31:24.924Z,67.59
2018-07-20T01:33:53.221Z,68.61
2018-07-20T01:36:21.527Z,67.96
2018-07-20T01:38:49.837Z,68.68
2018-07-20T01:41:18.131Z,69.69
2018-07-20T01:43:46.372Z,69.06
2018-07-20T01:46:14.709Z,69.20
2018-07-20T01:48:42.976Z,69.67
2018-07-20T01:51:11.254Z,68.80
2018-07-20T01:53:39.525Z,69.99
2018-07-20T01:56:07.771Z,69.58
2018-07-20T01:58:36.046Z,69.47
2018-07-20T02:01:04.313Z,70.09
2018-07-20T02:03:34.959Z,69.86
2018-07-20T02:06:03.214Z,70.55
2018-07-20T02:08:31.486Z,70.10
2018-07-20T02:11:00.810Z,70.80
2018-07-20T02:13:29.100Z,70.59
2018-07-20T02:15:58.036Z,70.18
2018-07-20T02:18:26.304Z,70.20
2018-07-20T02:20:54.609Z,70.37
2018-07-20T02:23:23.825Z,71.44
2018-07-20T02:25:52.136Z,70.91
2018-07-20T02:28:20.568Z,71.50
2018-07-20T02:30:48.872Z,71.86
2018-07-20T02:33:17.179Z,71.06
2018-07-20T02:35:45.541Z,71.31
2018-07-20T02:38:13.910Z,71.27
2018-07-20T02:40:42.176Z,72.29
2018-07-20T02:43:10.459Z,71.82
2018-07-20T02:45:38.820Z,72.23
2018-07-20T02:48:07.145Z,71.99
2018-07-20T02:50:36.287Z,72.91
2018-07-20T02:53:04.568Z,72.12
2018-07-20T02:55:32.865Z,72.77
2018-07-20T02:58:01.387Z,72.46
2018-07-20T03:00:29.653Z,72.24
2018-07-20T03:02:57.932Z,72.58
2018-07-20T03:05:26.175Z,72.24
2018-07-20T03:07:54.418Z,73.40
2018-07-20T03:10:22.720Z,73.13
2018-07-20T03:12:50.996Z,73.17
2018-07-20T03:15:19.270Z,73.22
2018-07-20T03:17:47.569Z,73.06
2018-07-20T03:20:15.846Z,73.31
2018-07-20T03:22:44.166Z,73.06
2018-07-20T03:25:12.605Z,73.77
2018-07-20T03:27:40.854Z,73.61
2018-07-20T03:30:09.158Z,73.04
2018-07-20T03:32:37.531Z,73.59
2018-07-20T03:35:05.820Z,74.14
2018-07-20T03:37:34.160Z,72.93
2018-07-20T03:40:02.726Z,73.03
2018-07-20T03:42:31.368Z,73.22
2018-07-20T03:44:59.619Z,73.26
2018-07-20T03:47:27.905Z,72.87
2018-07-20T03:49:56.211Z,72.81
2018-07-20T03:52:24.498Z,72.64
2018-07-20T03:54:52.959Z,73.12
2018-07-20T03:57:21.453Z,72.59
2018-07-20T03:59:49.709Z,73.29
2018-07-20T04:02:18.301Z,72.95
2018-07-20T04:04:46.546Z,72.92
2018-07-20T04:07:14.826Z,72.84
2018-07-20T04:09:43.194Z,73.48
2018-07-20T04:12:11.517Z,73.26
2018-07-20T04:14:39.947Z,72.79
2018-07-20T04:17:08.247Z,72.98
2018-07-20T04:19:36.638Z,73.15
2018-07-20T04:22:04.924Z,72.89
2018-07-20T04:24:33.189Z,72.39
2018-07-20T04:27:01.538Z,72.52
2018-07-20T04:29:29.959Z,71.84
2018-07-20T04:31:58.314Z,71.88
2018-07-20T04:34:26.632Z,72.16
2018-07-20T04:36:55.030Z,72.16
2018-07-20T04:39:23.421Z,71.40
2018-07-20T04:41:51.895Z,71.04
2018-07-20T04:44:20.400Z,71.64
2018-07-20T04:46:48.659Z,71.58
2018-07-20T04:49:17.117Z,70.94
2018-07-20T04:51:45.428Z,70.42
2018-07-20T04:54:13.723Z,70.45
2018-07-20T04:56:42.061Z,69.59
2018-07-20T04:59:10.466Z,69.80
2018-07-20T05:01:39.041Z,69.56
2018-07-20T05:04:07.288Z,69.14
2018-07-20T05:06:35.534Z,68.97
2018-07-20T05:09:04.487Z,68.89
2018-07-20T05:11:33.042Z,67.75
2018-07-20T05:14:01.304Z,67.14
2018-07-20T05:16:29.561Z,67.28
2018-07-20T05:18:57.877Z,67.29
2018-07-20T05:21:26.191Z,66.62
2018-07-20T05:23:54.471Z,67.06
2018-07-20T05:26:22.716Z,66.49
2018-07-20T05:28:51.015Z,65.41
2018-07-20T05:31:19.720Z,65.70
2018-07-20T05:33:47.954Z,64.99
2018-07-20T05:36:16.191Z,64.71
2018-07-20T05:38:44.707Z,63.92
2018-07-20T05:41:13.035Z,63.69
2018-07-20T05:43:41.342Z,63.16
2018-07-20T05:46:09.635Z,63.12
2018-07-20T05:48:37.918Z,62.40
2018-07-20T05:51:06.244Z,62.13
2018-07-20T05:53:34.551Z,62.40
2018-07-20T05:56:03.117Z,62.26
2018-07-20T05:58:31.479Z,61.68
2018-07-20T06:00:59.788Z,60.95
2018-07-20T06:03:28.127Z,60.79
2018-07-20T06:05:56.375Z,60.77
2018-07-20T06:08:24.690Z,59.92
2018-07-20T06:10:53.003Z,59.90
2018-07-20T06:13:21.288Z,59.07
2018-07-20T06:15:49.691Z,59.53
2018-07-20T06:18:17.943Z,58.75
2018-07-20T06:20:46.422Z,59.07
2018-07-20T06:23:14.701Z,58.29
2018-07-20T06:25:43.128Z,58.06
2018-07-20T06:28:11.432Z,56.95
2018-07-20T06:30:39.831Z,57.70
2018-07-20T06:33:08.098Z,57.32
2018-07-20T06:35:36.465Z,56.47
2018-07-20T06:38:04.793Z,55.84
2018-07-20T06:40:33.089Z,56.07
2018-07-20T06:43:01.444Z,55.31
2018-07-20T06:45:29.686Z,55.29
2018-07-20T06:47:57.944Z,55.79
2018-07-20T06:50:26.244Z,55.13
2018-07-20T06:52:54.532Z,54.56
2018-07-20T06:55:22.876Z,54.39
2018-07-20T06:57:51.203Z,54.07
2018-07-20T07:00:19.548Z,54.83
2018-07-20T07:02:47.918Z,54.43
2018-07-20T07:05:16.429Z,53.71
2018-07-20T07:07:44.687Z,53.63
2018-07-20T07:10:12.955Z,52.98
2018-07-20T07:12:41.246Z,52.80
2018-07-20T07:15:09.563Z,52.08
2018-07-20T07:17:37.864Z,52.11
2018-07-20T07:20:06.213Z,51.35
2018-07-20T07:22:34.468Z,51.96
2018-07-20T07:25:02.782Z,51.83
2018-07-20T07:27:31.110Z,51.70
2018-07-20T07:29:59.366Z,51.07
2018-07-20T07:32:27.729Z,52.08
2018-07-20T07:34:56.035Z,51.41
2018-07-20T07:37:24.328Z,51.48
2018-07-20T07:39:52.624Z,50.22
2018-07-20T07:42:20.917Z,49.23
2018-07-20T07:44:49.266Z,50.68
2018-07-20T07:47:17.552Z,48.72
2018-07-20T07:49:45.820Z,49.03
2018-07-20T07:52:14.998Z,48.64
2018-07-20T07:54:43.295Z,48.63
2018-07-20T07:57:11.544Z,48.91
2018-07-20T07:59:39.848Z,50.16
2018-07-20T08:02:08.127Z,49.45
2018-07-20T08:04:36.412Z,48.60
2018-07-20T08:07:04.766Z,47.79
2018-07-20T08:09:33.075Z,47.66
2018-07-20T08:12:01.337Z,48.49
2018-07-20T08:14:29.916Z,46.47
2018-07-20T08:16:58.228Z,46.55
2018-07-20T08:19:26.590Z,45.96
2018-07-20T08:21:54.856Z,47.19
2018-07-20T08:24:23.258Z,46.55
2018-07-20T08:26:51.597Z,47.06
2018-07-20T08:29:19.858Z,45.04
2018-07-20T08:31:48.272Z,45.19
2018-07-20T08:34:16.575Z,44.82
2018-07-20T08:36:44.948Z,44.62
2018-07-20T08:39:13.226Z,44.56
2018-07-20T08:41:41.552Z,44.54
2018-07-20T08:44:09.811Z,42.69
2018-07-20T08:46:38.193Z,45.06
2018-07-20T08:49:06.601Z,44.94
2018-07-20T08:51:34.871Z,43.18
2018-07-20T08:54:03.181Z,43.00
2018-07-20T08:56:31.465Z,43.23
2018-07-20T08:58:59.814Z,43.56
2018-07-20T09:01:28.184Z,43.96
2018-07-20T09:03:56.474Z,42.96
2018-07-20T09:06:24.768Z,41.80
2018-07-20T09:08:53.020Z,41.47
2018-07-20T09:11:21.348Z,41.80
2018-07-20T09:13:49.729Z,42.05
2018-07-20T09:16:18.296Z,42.47
2018-07-20T09:18:46.930Z,40.61
2018-07-20T09:21:15.236Z,41.85
2018-07-20T09:23:49.580Z,41.99
2018-07-20T09:26:17.967Z,40.65
2018-07-20T09:28:46.260Z,40.99
2018-07-20T09:31:14.553Z,41.03
2018-07-20T09:33:42.843Z,41.30
2018-07-20T09:36:11.158Z,41.14
2018-07-20T09:38:39.452Z,40.17
2018-07-20T09:41:07.754Z,40.46
2018-07-20T09:43:36.124Z,38.61
2018-07-20T09:46:04.404Z,39.05
2018-07-20T09:48:32.720Z,39.51
2018-07-20T09:51:01.011Z,39.25
2018-07-20T09:53:29.316Z,39.32
2018-07-20T09:55:57.626Z,38.47
2018-07-20T09:58:25.966Z,37.57
2018-07-20T10:00:54.386Z,38.35
2018-07-20T10:03:22.989Z,37.77
2018-07-20T10:05:51.296Z,37.18
2018-07-20T10:08:20.280Z,37.08
2018-07-20T10:10:48.617Z,35.68
2018-07-20T10:13:17.524Z,36.16
2018-07-20T10:15:45.860Z,35.23
2018-07-20T10:18:14.634Z,36.65
2018-07-20T10:20:43.346Z,37.45
2018-07-20T10:23:11.800Z,37.15
2018-07-20T10:25:40.192Z,39.05
2018-07-20T10:28:08.448Z,36.41
2018-07-20T10:30:36.727Z,37.06
2018-07-20T10:33:05.016Z,35.75
2018-07-20T10:35:33.319Z,35.73
2018-07-20T10:38:01.576Z,35.91
2018-07-20T10:40:29.904Z,34.78
2018-07-20T10:42:59.193Z,36.21
2018-07-20T10:45:27.771Z,35.59
2018-07-20T10:47:56.448Z,34.38
2018-07-20T10:50:24.886Z,34.11
2018-07-20T10:52:53.153Z,34.78
2018-07-20T10:55:21.401Z,32.71
2018-07-20T10:57:49.682Z,32.76
2018-07-20T11:00:18.059Z,34.35
2018-07-20T11:02:46.550Z,34.54
2018-07-20T11:05:14.881Z,32.97
2018-07-20T11:07:43.561Z,33.95
2018-07-20T11:10:11.866Z,33.45
2018-07-20T11:12:40.163Z,34.91
2018-07-20T11:15:08.458Z,33.13
2018-07-20T11:17:36.709Z,33.48
2018-07-20T11:20:05.193Z,34.87
2018-07-20T11:22:33.541Z,33.94
2018-07-20T11:25:01.837Z,32.73
2018-07-20T11:27:30.118Z,32.86
2018-07-20T11:29:58.437Z,32.22
2018-07-20T11:32:26.736Z,32.75
2018-07-20T11:34:55.014Z,32.70
2018-07-20T11:37:23.379Z,31.59
2018-07-20T11:39:51.720Z,30.73
2018-07-20T11:42:20.089Z,31.31
2018-07-20T11:44:48.342Z,31.67
2018-07-20T11:47:16.661Z,30.28
2018-07-20T11:49:44.921Z,30.91
2018-07-20T11:52:13.227Z,32.07
2018-07-20T11:54:41.542Z,31.95
2018-07-20T11:57:09.818Z,31.93
2018-07-20T11:59:38.164Z,31.34
2018-07-20T12:02:06.413Z,31.65
2018-07-20T12:04:34.692Z,32.61
2018-07-20T12:07:03.206Z,32.35
2018-07-20T12:09:31.484Z,30.47
2018-07-20T12:12:00.036Z,31.67
2018-07-20T12:14:28.304Z,33.70
2018-07-20T12:16:56.676Z,33.48
2018-07-20T12:19:24.983Z,32.47
2018-07-20T12:21:53.392Z,33.58
2018-07-20T12:24:21.690Z,32.19
2018-07-20T12:26:49.948Z,31.01
2018-07-20T12:29:18.327Z,31.55
2018-07-20T12:31:46.955Z,31.22
2018-07-20T12:34:15.255Z,30.37
2018-07-20T12:36:43.639Z,30.95
2018-07-20T12:39:12.544Z,31.13
2018-07-20T12:41:41.643Z,30.18
2018-07-20T12:44:09.920Z,29.88
2018-07-20T12:46:38.254Z,31.20
2018-07-20T12:49:06.612Z,31.45
2018-07-20T12:51:34.904Z,30.71
2018-07-20T12:54:03.287Z,31.48
2018-07-20T12:56:31.584Z,31.72
2018-07-20T12:58:59.925Z,32.05
2018-07-20T13:01:28.221Z,30.64
2018-07-20T13:03:56.634Z,30.50
2018-07-20T13:06:24.949Z,30.88
2018-07-20T13:08:53.226Z,30.14
2018-07-20T13:11:21.509Z,30.10
2018-07-20T13:13:49.808Z,32.46
2018-07-20T13:16:18.097Z,31.91
2018-07-20T13:18:46.385Z,32.37
2018-07-20T13:21:15.793Z,31.25
2018-07-20T13:23:44.123Z,31.69
2018-07-20T13:26:12.613Z,30.96
2018-07-20T13:28:40.875Z,29.97
2018-07-20T13:31:09.150Z,31.02
2018-07-20T13:33:37.472Z,31.36
2018-07-20T13:36:05.766Z,29.32
2018-07-20T13:38:34.144Z,28.54
2018-07-20T13:41:02.523Z,25.71
2018-07-20T13:43:30.818Z,23.32
2018-07-20T13:45:59.133Z,23.34
2018-07-20T13:48:27.503Z,24.63
2018-07-20T13:50:55.943Z,24.41
2018-07-20T13:53:24.250Z,26.32
2018-07-20T13:55:52.568Z,26.10
2018-07-20T13:58:20.850Z,25.26
2018-07-20T14:00:49.177Z,24.35
2018-07-20T14:03:17.461Z,24.59
2018-07-20T14:05:45.797Z,25.53
2018-07-20T14:08:14.115Z,25.05
2018-07-20T14:10:42.443Z,26.21
2018-07-20T14:13:11.431Z,25.90
2018-07-20T14:15:39.698Z,24.09
2018-07-20T14:18:08.052Z,24.01
2018-07-20T14:20:36.468Z,27.12
2018-07-20T14:23:04.781Z,26.56
2018-07-20T14:25:33.086Z,26.07
2018-07-20T14:28:01.685Z,26.48
2018-07-20T14:30:30.132Z,25.71
2018-07-20T14:32:58.434Z,26.69
2018-07-20T14:35:26.708Z,23.63
2018-07-20T14:37:55.028Z,24.39
2018-07-20T14:40:23.364Z,25.13
2018-07-20T14:42:51.640Z,24.03
2018-07-20T14:45:20.002Z,24.15
2018-07-20T14:47:48.345Z,21.41
2018-07-20T14:50:16.657Z,21.13
2018-07-20T14:52:44.933Z,22.77
2018-07-20T14:55:13.319Z,22.41
2018-07-20T14:57:41.659Z,22.40
2018-07-20T15:00:10.041Z,20.96
2018-07-20T15:02:38.409Z,22.42
2018-07-20T15:05:06.980Z,22.19
2018-07-20T15:07:35.339Z,23.63
2018-07-20T15:10:03.637Z,23.23
2018-07-20T15:12:32.032Z,22.98
2018-07-20T15:15:00.322Z,20.86
2018-07-20T15:17:28.590Z,23.44
2018-07-20T15:19:56.883Z,20.59
2018-07-20T15:22:25.145Z,19.88
2018-07-20T15:24:53.889Z,20.15
2018-07-20T15:27:22.148Z,21.63
2018-07-20T15:29:50.416Z,23.39
2018-07-20T15:32:19.003Z,21.29
2018-07-20T15:34:47.408Z,23.38
2018-07-20T15:37:16.137Z,23.29
2018-07-20T15:39:45.955Z,23.05
2018-07-20T15:42:14.609Z,21.79
2018-07-20T15:44:42.943Z,22.03
2018-07-20T15:47:11.426Z,20.87
2018-07-20T15:49:39.704Z,20.21
2018-07-20T15:54:36.670Z,18.67
2018-07-20T15:57:05.344Z,19.00
2018-07-20T15:59:33.705Z,19.56
2018-07-20T16:02:01.954Z,19.20
2018-07-20T16:04:30.336Z,18.03
2018-07-20T16:06:58.616Z,20.21
2018-07-20T16:09:26.895Z,18.19
2018-07-20T16:11:55.175Z,18.11
2018-07-20T16:14:23.515Z,18.64
2018-07-20T16:16:51.832Z,19.48
2018-07-20T16:19:20.167Z,18.70
2018-07-20T16:21:48.498Z,17.96
2018-07-20T16:24:16.809Z,18.27
2018-07-20T16:26:45.067Z,19.48
2018-07-20T16:29:13.543Z,18.96
2018-07-20T16:31:41.812Z,17.48
2018-07-20T16:34:10.430Z,17.62
2018-07-20T16:36:38.719Z,17.96
2018-07-20T16:39:08.646Z,17.30
2018-07-20T16:41:37.159Z,19.01
2018-07-20T16:44:05.495Z,17.09
2018-07-20T16:46:33.838Z,18.77
2018-07-20T16:49:02.227Z,18.28
2018-07-20T16:51:30.542Z,18.69
2018-07-20T16:53:58.844Z,18.98
2018-07-20T16:56:27.274Z,19.30
2018-07-20T16:58:55.665Z,20.01
2018-07-20T17:01:24.131Z,20.25
2018-07-20T17:03:52.810Z,20.74
2018-07-20T17:06:21.496Z,19.44
2018-07-20T17:08:49.782Z,21.65
2018-07-20T17:11:18.098Z,20.91
2018-07-20T17:13:46.667Z,20.28
2018-07-20T17:16:15.146Z,20.38
2018-07-20T17:18:43.721Z,20.73
2018-07-20T17:21:12.086Z,21.17
2018-07-20T17:23:40.379Z,21.20
2018-07-20T17:26:08.695Z,20.61
2018-07-20T17:28:37.496Z,19.93
2018-07-20T17:31:05.873Z,20.26
2018-07-20T17:33:34.231Z,20.35
2018-07-20T17:36:02.462Z,20.93
2018-07-20T17:38:30.754Z,20.08
2018-07-20T17:40:59.011Z,21.14
2018-07-20T17:43:27.344Z,22.94
2018-07-20T17:45:55.671Z,22.63
2018-07-20T17:48:23.979Z,22.55
2018-07-20T17:50:52.261Z,22.37
2018-07-20T17:53:20.529Z,23.55
2018-07-20T17:55:48.838Z,23.75
2018-07-20T17:58:17.102Z,23.50
2018-07-20T18:00:45.406Z,22.53
2018-07-20T18:03:13.730Z,23.14
2018-07-20T18:05:42.094Z,23.71
2018-07-20T18:08:10.423Z,24.06
2018-07-20T18:10:38.732Z,23.87
2018-07-20T18:13:07.067Z,24.17
2018-07-20T18:15:35.762Z,25.38
2018-07-20T18:18:04.018Z,24.54
2018-07-20T18:20:32.326Z,25.68
2018-07-20T18:23:00.596Z,25.32
2018-07-20T18:25:28.906Z,26.58
2018-07-20T18:27:57.209Z,26.54
2018-07-20T18:30:25.561Z,27.07
2018-07-20T18:32:53.865Z,26.24
2018-07-20T18:35:22.179Z,26.64
2018-07-20T18:37:50.738Z,27.90
2018-07-20T18:40:19.096Z,28.69
2018-07-20T18:42:47.432Z,28.85
2018-07-20T18:45:16.739Z,28.57
2018-07-20T18:47:45.205Z,29.07
2018-07-20T18:50:13.491Z,29.52
2018-07-20T18:52:41.768Z,29.64
2018-07-20T18:55:10.028Z,30.51
2018-07-20T18:57:38.364Z,30.70
2018-07-20T19:00:07.085Z,30.89
2018-07-20T19:02:35.364Z,31.05
2018-07-20T19:05:04.031Z,31.87
2018-07-20T19:07:32.430Z,31.77
2018-07-20T19:10:00.942Z,32.90
2018-07-20T19:12:29.233Z,32.56
2018-07-20T19:14:57.750Z,33.08
2018-07-20T19:17:26.022Z,32.39
2018-07-20T19:19:54.337Z,33.76
2018-07-20T19:22:22.779Z,33.32
2018-07-20T19:24:51.075Z,33.65
2018-07-20T19:27:20.317Z,34.16
2018-07-20T19:29:49.370Z,33.86
2018-07-20T19:32:17.703Z,34.25
2018-07-20T19:34:46.069Z,34.34
2018-07-20T19:37:14.373Z,35.30
2018-07-20T19:39:42.671Z,34.75
2018-07-20T19:42:11.987Z,35.66
2018-07-20T19:44:40.808Z,36.13
2018-07-20T19:47:09.283Z,36.71
2018-07-20T19:49:38.113Z,36.25
2018-07-20T19:52:06.614Z,35.93
2018-07-20T19:54:35.773Z,36.62
2018-07-20T19:57:04.042Z,36.58
2018-07-20T19:59:32.333Z,37.68
2018-07-20T20:02:00.673Z,35.94
2018-07-20T20:04:29.171Z,36.85
2018-07-20T20:06:57.519Z,36.64
2018-07-20T20:09:25.791Z,37.28
2018-07-20T20:11:54.298Z,36.59
2018-07-20T20:14:22.697Z,37.00
2018-07-20T20:16:51.003Z,37.23
2018-07-20T20:19:19.336Z,37.01
2018-07-20T20:21:47.702Z,38.64
2018-07-20T20:24:16.583Z,38.60
2018-07-20T20:26:44.861Z,38.61
2018-07-20T20:29:13.143Z,39.78
2018-07-20T20:31:41.667Z,39.78
2018-07-20T20:34:09.940Z,39.91
2018-07-20T20:36:38.219Z,38.97
2018-07-20T20:39:10.571Z,39.72
2018-07-20T20:41:38.847Z,41.01
2018-07-20T20:44:07.123Z,40.36
2018-07-20T20:46:35.416Z,40.16
2018-07-20T20:49:03.828Z,40.40
2018-07-20T20:51:32.124Z,39.73
2018-07-20T20:54:00.385Z,42.20
2018-07-20T20:56:28.642Z,43.21
2018-07-20T20:58:56.978Z,45.42
2018-07-20T21:01:25.372Z,46.40
2018-07-20T21:03:53.630Z,47.13
2018-07-20T21:06:21.956Z,47.84
2018-07-20T21:08:50.244Z,47.90
2018-07-20T21:11:18.553Z,48.82
2018-07-20T21:13:46.979Z,47.79
2018-07-20T21:16:15.256Z,48.67
2018-07-20T21:18:43.561Z,48.91
2018-07-20T21:21:11.857Z,48.65
2018-07-20T21:23:40.167Z,50.38
2018-07-20T21:26:08.404Z,50.02
2018-07-20T21:28:36.735Z,50.40
2018-07-20T21:31:05.010Z,50.49
2018-07-20T21:33:33.327Z,51.25
2018-07-20T21:36:01.628Z,51.83
2018-07-20T21:38:29.980Z,51.83
2018-07-20T21:40:58.245Z,52.52
2018-07-20T21:43:26.593Z,53.15
2018-07-20T21:45:54.898Z,53.72
2018-07-20T21:48:23.161Z,53.60
2018-07-20T21:50:51.601Z,53.05
2018-07-20T21:53:19.880Z,54.33
2018-07-20T21:55:48.168Z,54.03
2018-07-20T21:58:16.618Z,54.67
2018-07-20T22:00:45.118Z,55.22
2018-07-20T22:03:13.551Z,55.83
2018-07-20T22:05:41.823Z,56.07
2018-07-20T22:08:10.245Z,55.70
2018-07-20T22:10:38.542Z,56.59
2018-07-20T22:13:06.893Z,56.76
2018-07-20T22:15:35.180Z,56.91
2018-07-20T22:18:04.580Z,57.30
2018-07-20T22:20:33.063Z,57.39
2018-07-20T22:23:01.294Z,57.17
2018-07-20T22:25:29.581Z,58.12
2018-07-20T22:27:57.931Z,57.49
2018-07-20T22:30:26.247Z,58.31
2018-07-20T22:32:54.521Z,57.78
2018-07-20T22:35:22.884Z,58.55
2018-07-20T22:37:51.177Z,58.71
2018-07-20T22:40:21.487Z,58.54
2018-07-20T22:42:49.775Z,58.57
2018-07-20T22:45:18.060Z,58.87
2018-07-20T22:47:46.397Z,58.66
2018-07-20T22:50:14.701Z,58.99
2018-07-20T22:52:42.944Z,59.10
2018-07-20T22:55:11.332Z,58.71
2018-07-20T22:57:39.610Z,58.14
2018-07-20T23:00:08.134Z,58.69
2018-07-20T23:02:36.611Z,58.56
2018-07-20T23:05:04.873Z,59.73
2018-07-20T23:07:33.282Z,58.58
2018-07-20T23:10:01.510Z,58.87
2018-07-20T23:12:29.783Z,58.92
2018-07-20T23:14:58.035Z,58.79
2018-07-20T23:17:26.349Z,58.69
2018-07-20T23:19:54.864Z,58.93
2018-07-20T23:22:23.215Z,58.89
2018-07-20T23:24:51.474Z,59.12
2018-07-20T23:27:19.996Z,58.57
2018-07-20T23:29:48.321Z,59.31
2018-07-20T23:32:16.571Z,59.80
2018-07-20T23:34:44.869Z,59.69
2018-07-20T23:37:13.246Z,59.95
2018-07-20T23:39:41.503Z,60.53
2018-07-20T23:42:10.815Z,59.80
2018-07-20T23:44:39.091Z,60.48
2018-07-20T23:47:07.399Z,60.69
2018-07-20T23:49:35.661Z,60.67
2018-07-20T23:52:03.984Z,60.29
2018-07-20T23:54:32.265Z,59.96
2018-07-20T23:57:00.554Z,60.37
2018-07-20T23:59:28.819Z,60.76
